createdAt,value
2022-12-14T02:17:56.790Z,7.53
2022-12-14T02:20:28.828Z,7.35
2022-12-14T02:23:20.678Z,7.18
2022-12-14T02:26:24.334Z,8.30
2022-12-14T02:29:05.612Z,7.72
2022-12-14T02:31:51.686Z,6.63
2022-12-14T02:34:30.178Z,6.28
2022-12-14T02:37:03.990Z,8.48
2022-12-14T02:39:38.748Z,6.45
2022-12-14T02:42:15.277Z,7.00
2022-12-14T02:45:17.436Z,6.97
2022-12-14T02:48:17.131Z,6.13
2022-12-14T02:50:55.483Z,5.97
2022-12-14T02:53:31.338Z,5.60
2022-12-14T02:56:04.138Z,7.55
2022-12-14T02:58:40.011Z,6.63
2022-12-14T03:03:38.300Z,5.82
2022-12-14T03:06:14.879Z,7.40
2022-12-14T03:08:45.166Z,7.20
2022-12-14T03:11:21.499Z,8.23
2022-12-14T03:13:51.654Z,6.85
2022-12-14T03:16:31.281Z,5.75
2022-12-14T03:19:13.572Z,6.20
2022-12-14T03:21:45.012Z,6.38
2022-12-14T03:24:15.668Z,4.82
2022-12-14T03:27:05.508Z,6.65
2022-12-14T03:29:39.247Z,4.90
2022-12-14T03:32:09.777Z,5.32
2022-12-14T03:34:42.969Z,6.32
2022-12-14T03:37:29.712Z,5.22
2022-12-14T03:39:56.300Z,5.93
2022-12-14T03:42:30.372Z,6.80
2022-12-14T03:45:11.267Z,6.30
2022-12-14T03:48:09.847Z,4.22
2022-12-14T03:50:39.144Z,5.35
2022-12-14T03:53:23.966Z,4.68
2022-12-14T03:56:12.279Z,5.30
2022-12-14T03:58:56.995Z,6.20
2022-12-14T04:01:42.622Z,4.97
2022-12-14T04:04:37.869Z,5.60
2022-12-14T04:07:13.571Z,4.68
2022-12-14T04:10:00.866Z,5.28
2022-12-14T04:12:56.627Z,5.38
2022-12-14T04:15:47.168Z,5.57
2022-12-14T04:18:43.641Z,6.28
2022-12-14T04:21:16.807Z,6.63
2022-12-14T04:24:11.033Z,4.88
2022-12-14T04:26:50.148Z,5.97
2022-12-14T04:29:44.198Z,6.93
2022-12-14T04:32:25.848Z,4.82
2022-12-14T04:35:06.150Z,7.78
2022-12-14T04:37:37.035Z,6.13
2022-12-14T04:40:12.435Z,5.55
2022-12-14T04:43:01.990Z,8.45
2022-12-14T04:45:36.428Z,5.55
2022-12-14T04:48:29.248Z,5.78
2022-12-14T04:51:10.567Z,6.65
2022-12-14T04:53:41.044Z,5.78
2022-12-14T04:56:18.865Z,6.45
2022-12-14T04:58:45.455Z,7.05
2022-12-14T05:01:27.269Z,6.28
2022-12-14T05:03:59.549Z,6.15
2022-12-14T05:06:53.461Z,5.45
2022-12-14T05:09:27.491Z,6.93
2022-12-14T05:12:07.385Z,6.35
2022-12-14T05:14:46.248Z,6.47
2022-12-14T05:17:13.363Z,7.28
2022-12-14T05:19:48.782Z,5.57
2022-12-14T05:22:17.180Z,5.57
2022-12-14T05:24:43.872Z,6.57
2022-12-14T05:27:10.494Z,6.07
2022-12-14T05:29:37.035Z,8.40
2022-12-14T05:32:03.618Z,5.45
2022-12-14T05:34:30.877Z,6.32
2022-12-14T05:36:58.204Z,5.53
2022-12-14T05:39:24.835Z,7.88
2022-12-14T05:41:53.265Z,7.25
2022-12-14T05:44:20.112Z,5.50
2022-12-14T05:46:46.618Z,7.72
2022-12-14T05:49:13.428Z,6.40
2022-12-14T05:51:39.955Z,7.90
2022-12-14T05:54:06.526Z,7.28
2022-12-14T05:56:33.092Z,8.35
2022-12-14T05:58:59.663Z,8.25
2022-12-14T06:01:26.263Z,7.88
2022-12-14T06:03:52.980Z,6.95
2022-12-14T06:06:19.596Z,7.95
2022-12-14T06:08:46.733Z,7.97
2022-12-14T16:41:41.223Z,17.70
2022-12-14T18:35:03.621Z,16.63
2022-12-14T18:37:32.939Z,15.10
2022-12-14T18:39:59.699Z,15.90
2022-12-14T18:42:26.357Z,15.45
2022-12-14T18:44:52.973Z,15.77
2022-12-14T18:47:40.673Z,13.73
2022-12-14T18:50:07.217Z,15.15
2022-12-14T18:52:33.861Z,14.63
2022-12-14T18:55:00.530Z,13.85
2022-12-14T18:57:27.244Z,15.35
2022-12-14T18:59:54.811Z,18.00
2022-12-14T19:02:21.605Z,17.17
2022-12-14T19:04:49.549Z,16.85
2022-12-14T19:07:16.305Z,16.38
2022-12-14T19:09:43.034Z,19.38
2022-12-14T19:12:11.873Z,18.48
2022-12-14T19:14:38.537Z,16.92
2022-12-14T19:17:05.195Z,18.20
2022-12-14T19:19:38.185Z,15.88
2022-12-14T19:22:08.330Z,17.52
2022-12-14T19:24:35.317Z,17.55
2022-12-14T19:27:02.223Z,16.02
2022-12-14T19:29:28.890Z,18.05
2022-12-14T19:31:58.070Z,19.25
2022-12-14T19:34:28.485Z,18.85
2022-12-14T19:36:55.118Z,17.42
2022-12-14T19:39:21.804Z,18.50
2022-12-14T19:41:49.164Z,18.55
2022-12-14T19:44:15.829Z,17.77
2022-12-14T19:46:42.664Z,19.98
2022-12-14T19:49:12.911Z,19.23
2022-12-14T19:51:39.586Z,18.30
2022-12-14T19:54:06.808Z,15.68
2022-12-14T19:56:33.495Z,19.77
2022-12-14T19:59:03.572Z,18.70
2022-12-14T20:01:39.649Z,17.00
2022-12-14T20:04:08.709Z,18.67
2022-12-14T20:06:35.460Z,20.10
2022-12-14T20:09:04.877Z,18.80
2022-12-14T20:11:31.728Z,16.13
2022-12-14T20:14:02.916Z,22.92
2022-12-14T20:16:30.145Z,18.52
2022-12-14T20:18:57.876Z,19.02
2022-12-14T20:21:26.605Z,19.95
2022-12-14T20:23:53.250Z,19.40
2022-12-14T20:26:21.747Z,16.45
2022-12-14T20:28:56.234Z,19.05
2022-12-14T20:31:23.524Z,17.02
2022-12-14T20:33:50.484Z,19.88
2022-12-14T20:36:18.767Z,18.42
2022-12-14T20:38:46.498Z,18.13
2022-12-14T20:41:17.231Z,17.75
2022-12-14T20:43:44.661Z,20.15
2022-12-14T20:46:36.650Z,15.80
2022-12-14T20:49:12.077Z,18.10
2022-12-14T20:51:39.165Z,18.42
2022-12-14T20:54:08.089Z,18.90
2022-12-14T20:56:35.850Z,16.65
2022-12-14T20:59:02.543Z,18.83
2022-12-14T21:01:29.286Z,21.77
2022-12-14T21:03:57.669Z,18.88
2022-12-14T21:06:24.241Z,18.50
2022-12-14T21:09:06.365Z,21.13
2022-12-14T21:11:53.509Z,18.15
2022-12-14T21:14:21.279Z,20.15
2022-12-14T21:16:47.926Z,17.35
2022-12-14T21:19:15.843Z,18.83
2022-12-14T21:21:45.651Z,20.23
2022-12-14T21:24:31.130Z,20.48
2022-12-14T21:27:03.354Z,19.92
2022-12-14T21:29:29.908Z,18.58
2022-12-14T21:31:56.608Z,15.77
2022-12-14T21:34:23.635Z,17.33
2022-12-14T21:36:50.530Z,21.38
2022-12-14T21:39:18.954Z,16.80
2022-12-14T21:42:04.735Z,18.33
2022-12-14T21:44:32.452Z,16.75
2022-12-14T21:46:58.977Z,16.42
2022-12-14T21:49:25.493Z,14.30
2022-12-14T21:51:58.580Z,16.73
2022-12-14T21:54:26.106Z,16.10
2022-12-14T21:57:11.165Z,16.75
2022-12-14T21:59:42.107Z,15.05
2022-12-14T22:02:13.779Z,15.90
2022-12-14T22:04:40.395Z,13.88
2022-12-14T22:07:06.897Z,14.27
2022-12-14T22:09:33.407Z,12.90
2022-12-14T22:11:59.895Z,14.32
2022-12-14T22:14:26.404Z,10.32
2022-12-14T22:16:53.611Z,16.05
2022-12-14T22:19:23.162Z,11.60
2022-12-14T22:21:51.008Z,15.80
2022-12-14T22:24:18.907Z,15.00
2022-12-14T22:26:45.404Z,16.08
2022-12-14T22:29:13.284Z,15.07
2022-12-14T22:31:39.846Z,14.65
2022-12-14T22:34:06.925Z,14.88
2022-12-14T22:36:33.431Z,14.88
2022-12-14T22:38:59.943Z,14.90
2022-12-14T22:41:27.136Z,15.05
2022-12-14T22:43:58.179Z,13.55
2022-12-14T22:46:25.957Z,13.27
2022-12-14T22:48:53.154Z,12.98
2022-12-14T22:51:20.832Z,13.20
2022-12-14T22:53:49.502Z,12.15
2022-12-14T22:56:34.579Z,14.60
2022-12-14T22:59:10.383Z,11.40
2022-12-14T23:01:37.861Z,12.82
2022-12-14T23:04:06.201Z,11.38
2022-12-14T23:06:33.523Z,12.55
2022-12-14T23:09:18.659Z,11.30
2022-12-14T23:12:06.553Z,12.77
2022-12-14T23:14:54.406Z,10.63
2022-12-14T23:17:39.789Z,16.80
2022-12-14T23:20:25.083Z,11.03
2022-12-14T23:23:10.459Z,8.48
2022-12-14T23:25:55.898Z,14.35
2022-12-14T23:28:41.043Z,9.27
2022-12-14T23:31:26.002Z,13.43
2022-12-14T23:34:11.427Z,11.85
2022-12-14T23:36:56.336Z,10.48
2022-12-14T23:39:41.268Z,12.23
2022-12-14T23:42:26.107Z,13.02
2022-12-14T23:45:11.037Z,7.88
2022-12-14T23:47:56.237Z,11.27
2022-12-14T23:50:42.732Z,11.75
2022-12-14T23:53:28.621Z,8.77
2022-12-14T23:56:14.358Z,9.52
2022-12-14T23:58:59.215Z,10.50
